sensor_id;sensor_type;location;lat;lon;timestamp;P1;durP1;ratioP1;P2;durP2;ratioP2
33170;SDS011;19535;50.672;4.206;2023-01-05T00:01:44;5.50;;;3.85;;
33170;SDS011;19535;50.672;4.206;2023-01-05T00:04:11;5.32;;;3.70;;
33170;SDS011;19535;50.672;4.206;2023-01-05T00:06:39;5.97;;;3.65;;
33170;SDS011;19535;50.672;4.206;2023-01-05T00:09:07;4.35;;;3.05;;
33170;SDS011;19535;50.672;4.206;2023-01-05T00:11:36;4.85;;;3.20;;
33170;SDS011;19535;50.672;4.206;2023-01-05T00:14:22;4.65;;;3.00;;
33170;SDS011;19535;50.672;4.206;2023-01-05T00:17:11;4.83;;;3.00;;
33170;SDS011;19535;50.672;4.206;2023-01-05T00:19:58;5.95;;;2.78;;
33170;SDS011;19535;50.672;4.206;2023-01-05T00:22:51;5.22;;;3.00;;
33170;SDS011;19535;50.672;4.206;2023-01-05T00:25:23;4.57;;;2.50;;
33170;SDS011;19535;50.672;4.206;2023-01-05T00:27:51;4.40;;;2.25;;
33170;SDS011;19535;50.672;4.206;2023-01-05T00:30:20;4.32;;;2.40;;
33170;SDS011;19535;50.672;4.206;2023-01-05T00:32:48;6.13;;;3.20;;
33170;SDS011;19535;50.672;4.206;2023-01-05T00:35:16;4.38;;;2.30;;
33170;SDS011;19535;50.672;4.206;2023-01-05T00:37:43;4.80;;;2.42;;
33170;SDS011;19535;50.672;4.206;2023-01-05T00:40:11;3.97;;;2.08;;
33170;SDS011;19535;50.672;4.206;2023-01-05T00:45:08;3.83;;;2.08;;
33170;SDS011;19535;50.672;4.206;2023-01-05T00:47:37;5.25;;;2.67;;
33170;SDS011;19535;50.672;4.206;2023-01-05T00:50:04;4.22;;;1.90;;
33170;SDS011;19535;50.672;4.206;2023-01-05T00:52:31;4.13;;;2.28;;
33170;SDS011;19535;50.672;4.206;2023-01-05T00:54:59;3.72;;;2.13;;
33170;SDS011;19535;50.672;4.206;2023-01-05T00:57:25;6.50;;;3.00;;
33170;SDS011;19535;50.672;4.206;2023-01-05T00:59:52;3.53;;;2.22;;
33170;SDS011;19535;50.672;4.206;2023-01-05T01:02:19;4.63;;;2.47;;
33170;SDS011;19535;50.672;4.206;2023-01-05T01:04:47;4.82;;;2.60;;
33170;SDS011;19535;50.672;4.206;2023-01-05T01:07:14;3.63;;;1.85;;
33170;SDS011;19535;50.672;4.206;2023-01-05T01:09:41;5.45;;;2.47;;
33170;SDS011;19535;50.672;4.206;2023-01-05T01:12:08;4.72;;;2.40;;
33170;SDS011;19535;50.672;4.206;2023-01-05T01:14:35;4.57;;;2.60;;
33170;SDS011;19535;50.672;4.206;2023-01-05T01:17:02;4.43;;;2.13;;
33170;SDS011;19535;50.672;4.206;2023-01-05T01:19:29;4.63;;;2.50;;
33170;SDS011;19535;50.672;4.206;2023-01-05T01:21:56;4.47;;;2.15;;
33170;SDS011;19535;50.672;4.206;2023-01-05T01:24:24;3.95;;;2.30;;
33170;SDS011;19535;50.672;4.206;2023-01-05T01:26:55;5.38;;;2.55;;
33170;SDS011;19535;50.672;4.206;2023-01-05T01:29:22;5.03;;;2.25;;
33170;SDS011;19535;50.672;4.206;2023-01-05T01:31:51;6.50;;;2.42;;
33170;SDS011;19535;50.672;4.206;2023-01-05T01:34:19;4.15;;;2.20;;
33170;SDS011;19535;50.672;4.206;2023-01-05T01:36:46;6.60;;;2.20;;
33170;SDS011;19535;50.672;4.206;2023-01-05T01:39:13;6.47;;;2.63;;
33170;SDS011;19535;50.672;4.206;2023-01-05T01:41:40;3.38;;;2.03;;
33170;SDS011;19535;50.672;4.206;2023-01-05T01:49:55;5.20;;;2.70;;
33170;SDS011;19535;50.672;4.206;2023-01-05T01:52:24;4.47;;;2.50;;
33170;SDS011;19535;50.672;4.206;2023-01-05T01:54:53;4.43;;;2.20;;
33170;SDS011;19535;50.672;4.206;2023-01-05T01:57:20;4.15;;;2.17;;
33170;SDS011;19535;50.672;4.206;2023-01-05T01:59:48;5.45;;;2.50;;
33170;SDS011;19535;50.672;4.206;2023-01-05T02:02:15;4.00;;;1.90;;
33170;SDS011;19535;50.672;4.206;2023-01-05T02:04:42;5.75;;;2.72;;
33170;SDS011;19535;50.672;4.206;2023-01-05T02:07:10;6.38;;;2.28;;
33170;SDS011;19535;50.672;4.206;2023-01-05T02:09:39;6.38;;;2.60;;
33170;SDS011;19535;50.672;4.206;2023-01-05T02:12:14;4.88;;;2.35;;
33170;SDS011;19535;50.672;4.206;2023-01-05T02:14:59;5.53;;;2.55;;
33170;SDS011;19535;50.672;4.206;2023-01-05T02:21:33;3.50;;;2.03;;
33170;SDS011;19535;50.672;4.206;2023-01-05T02:24:17;4.40;;;2.40;;
33170;SDS011;19535;50.672;4.206;2023-01-05T02:32:32;6.25;;;2.30;;
33170;SDS011;19535;50.672;4.206;2023-01-05T02:42:52;6.68;;;2.60;;
33170;SDS011;19535;50.672;4.206;2023-01-05T02:45:22;5.40;;;2.53;;
33170;SDS011;19535;50.672;4.206;2023-01-05T02:47:49;4.65;;;2.33;;
33170;SDS011;19535;50.672;4.206;2023-01-05T02:50:22;4.88;;;2.13;;
33170;SDS011;19535;50.672;4.206;2023-01-05T02:52:57;5.53;;;2.53;;
33170;SDS011;19535;50.672;4.206;2023-01-05T02:55:37;4.85;;;2.30;;
33170;SDS011;19535;50.672;4.206;2023-01-05T02:58:18;5.43;;;2.22;;
33170;SDS011;19535;50.672;4.206;2023-01-05T03:00:50;5.03;;;2.65;;
33170;SDS011;19535;50.672;4.206;2023-01-05T03:06:01;4.95;;;2.08;;
33170;SDS011;19535;50.672;4.206;2023-01-05T03:08:32;5.72;;;2.85;;
33170;SDS011;19535;50.672;4.206;2023-01-05T03:11:04;4.00;;;2.10;;
33170;SDS011;19535;50.672;4.206;2023-01-05T03:13:59;7.22;;;2.67;;
33170;SDS011;19535;50.672;4.206;2023-01-05T03:16:32;4.60;;;2.70;;
33170;SDS011;19535;50.672;4.206;2023-01-05T03:19:01;5.22;;;2.22;;
33170;SDS011;19535;50.672;4.206;2023-01-05T03:21:51;5.20;;;2.13;;
33170;SDS011;19535;50.672;4.206;2023-01-05T03:24:37;5.03;;;2.60;;
33170;SDS011;19535;50.672;4.206;2023-01-05T03:27:24;3.92;;;2.03;;
33170;SDS011;19535;50.672;4.206;2023-01-05T03:30:10;5.10;;;2.30;;
33170;SDS011;19535;50.672;4.206;2023-01-05T03:32:59;7.18;;;2.92;;
33170;SDS011;19535;50.672;4.206;2023-01-05T03:35:52;5.70;;;2.67;;
33170;SDS011;19535;50.672;4.206;2023-01-05T03:38:31;5.93;;;2.90;;
33170;SDS011;19535;50.672;4.206;2023-01-05T03:41:02;3.75;;;2.30;;
33170;SDS011;19535;50.672;4.206;2023-01-05T03:43:34;4.72;;;2.42;;
33170;SDS011;19535;50.672;4.206;2023-01-05T03:46:07;3.90;;;1.98;;
33170;SDS011;19535;50.672;4.206;2023-01-05T03:48:44;4.97;;;2.22;;
33170;SDS011;19535;50.672;4.206;2023-01-05T03:51:11;5.53;;;2.80;;
33170;SDS011;19535;50.672;4.206;2023-01-05T03:53:41;6.63;;;2.70;;
33170;SDS011;19535;50.672;4.206;2023-01-05T03:56:08;4.45;;;2.13;;
33170;SDS011;19535;50.672;4.206;2023-01-05T03:58:35;6.55;;;2.78;;
33170;SDS011;19535;50.672;4.206;2023-01-05T04:01:02;5.75;;;2.47;;
33170;SDS011;19535;50.672;4.206;2023-01-05T04:03:30;4.68;;;2.50;;
33170;SDS011;19535;50.672;4.206;2023-01-05T04:05:57;5.30;;;2.35;;
33170;SDS011;19535;50.672;4.206;2023-01-05T04:08:24;5.68;;;2.35;;
33170;SDS011;19535;50.672;4.206;2023-01-05T04:10:52;5.45;;;2.63;;
33170;SDS011;19535;50.672;4.206;2023-01-05T04:13:19;6.05;;;2.67;;
33170;SDS011;19535;50.672;4.206;2023-01-05T04:15:46;5.00;;;2.50;;
33170;SDS011;19535;50.672;4.206;2023-01-05T04:18:13;5.50;;;2.83;;
33170;SDS011;19535;50.672;4.206;2023-01-05T04:20:40;4.70;;;2.10;;
33170;SDS011;19535;50.672;4.206;2023-01-05T04:23:07;5.72;;;2.42;;
33170;SDS011;19535;50.672;4.206;2023-01-05T04:25:34;4.93;;;2.30;;
33170;SDS011;19535;50.672;4.206;2023-01-05T04:28:01;7.28;;;2.83;;
33170;SDS011;19535;50.672;4.206;2023-01-05T04:30:28;4.72;;;2.22;;
33170;SDS011;19535;50.672;4.206;2023-01-05T04:32:55;6.47;;;2.80;;
33170;SDS011;19535;50.672;4.206;2023-01-05T04:35:22;5.60;;;2.75;;
33170;SDS011;19535;50.672;4.206;2023-01-05T04:37:49;5.65;;;2.42;;
33170;SDS011;19535;50.672;4.206;2023-01-05T04:40:16;5.90;;;2.47;;
33170;SDS011;19535;50.672;4.206;2023-01-05T04:42:43;5.90;;;2.35;;
33170;SDS011;19535;50.672;4.206;2023-01-05T04:45:10;6.20;;;3.03;;
33170;SDS011;19535;50.672;4.206;2023-01-05T04:47:37;5.80;;;2.58;;
33170;SDS011;19535;50.672;4.206;2023-01-05T04:50:04;6.72;;;2.50;;
33170;SDS011;19535;50.672;4.206;2023-01-05T04:52:31;6.38;;;2.58;;
33170;SDS011;19535;50.672;4.206;2023-01-05T04:54:58;4.53;;;2.22;;
33170;SDS011;19535;50.672;4.206;2023-01-05T04:57:25;5.57;;;2.70;;
33170;SDS011;19535;50.672;4.206;2023-01-05T04:59:52;4.68;;;2.17;;
33170;SDS011;19535;50.672;4.206;2023-01-05T05:02:19;7.32;;;2.88;;
33170;SDS011;19535;50.672;4.206;2023-01-05T05:04:46;5.75;;;2.42;;
33170;SDS011;19535;50.672;4.206;2023-01-05T05:07:13;5.20;;;2.60;;
33170;SDS011;19535;50.672;4.206;2023-01-05T05:09:40;7.63;;;3.08;;
33170;SDS011;19535;50.672;4.206;2023-01-05T05:12:07;6.05;;;2.58;;
33170;SDS011;19535;50.672;4.206;2023-01-05T05:14:34;5.88;;;2.45;;
33170;SDS011;19535;50.672;4.206;2023-01-05T05:17:01;6.60;;;2.58;;
33170;SDS011;19535;50.672;4.206;2023-01-05T05:19:28;5.60;;;2.50;;
33170;SDS011;19535;50.672;4.206;2023-01-05T05:21:55;6.38;;;2.60;;
33170;SDS011;19535;50.672;4.206;2023-01-05T05:24:22;5.32;;;2.13;;
33170;SDS011;19535;50.672;4.206;2023-01-05T05:26:49;5.53;;;2.63;;
33170;SDS011;19535;50.672;4.206;2023-01-05T05:29:16;7.63;;;3.00;;
33170;SDS011;19535;50.672;4.206;2023-01-05T05:31:43;7.35;;;2.80;;
33170;SDS011;19535;50.672;4.206;2023-01-05T05:34:11;5.20;;;2.20;;
33170;SDS011;19535;50.672;4.206;2023-01-05T05:36:38;5.28;;;2.63;;
33170;SDS011;19535;50.672;4.206;2023-01-05T05:39:05;6.07;;;2.63;;
33170;SDS011;19535;50.672;4.206;2023-01-05T05:41:32;4.65;;;2.47;;
33170;SDS011;19535;50.672;4.206;2023-01-05T05:43:59;6.38;;;2.90;;
33170;SDS011;19535;50.672;4.206;2023-01-05T05:46:28;6.43;;;2.47;;
33170;SDS011;19535;50.672;4.206;2023-01-05T05:48:55;6.90;;;2.67;;
33170;SDS011;19535;50.672;4.206;2023-01-05T05:51:23;6.47;;;2.63;;
33170;SDS011;19535;50.672;4.206;2023-01-05T05:53:51;7.25;;;2.85;;
33170;SDS011;19535;50.672;4.206;2023-01-05T05:56:18;5.22;;;2.50;;
33170;SDS011;19535;50.672;4.206;2023-01-05T05:58:45;6.85;;;2.63;;
33170;SDS011;19535;50.672;4.206;2023-01-05T06:01:12;6.13;;;2.65;;
33170;SDS011;19535;50.672;4.206;2023-01-05T06:03:39;5.53;;;2.38;;
33170;SDS011;19535;50.672;4.206;2023-01-05T06:06:06;5.13;;;2.60;;
33170;SDS011;19535;50.672;4.206;2023-01-05T06:08:33;5.28;;;2.17;;
33170;SDS011;19535;50.672;4.206;2023-01-05T06:11:00;6.60;;;3.03;;
33170;SDS011;19535;50.672;4.206;2023-01-05T06:13:27;5.35;;;2.70;;
33170;SDS011;19535;50.672;4.206;2023-01-05T06:15:54;6.63;;;3.00;;
33170;SDS011;19535;50.672;4.206;2023-01-05T06:18:21;6.05;;;3.20;;
33170;SDS011;19535;50.672;4.206;2023-01-05T06:20:48;6.70;;;2.83;;
33170;SDS011;19535;50.672;4.206;2023-01-05T06:23:19;6.95;;;2.70;;
33170;SDS011;19535;50.672;4.206;2023-01-05T06:25:46;7.55;;;3.25;;
33170;SDS011;19535;50.672;4.206;2023-01-05T06:28:12;6.63;;;2.72;;
33170;SDS011;19535;50.672;4.206;2023-01-05T06:30:45;5.78;;;2.55;;
33170;SDS011;19535;50.672;4.206;2023-01-05T06:33:12;6.57;;;2.42;;
33170;SDS011;19535;50.672;4.206;2023-01-05T06:35:39;7.43;;;3.00;;
33170;SDS011;19535;50.672;4.206;2023-01-05T06:38:06;5.50;;;2.95;;
33170;SDS011;19535;50.672;4.206;2023-01-05T06:40:33;7.18;;;2.92;;
33170;SDS011;19535;50.672;4.206;2023-01-05T06:43:00;6.88;;;3.20;;
33170;SDS011;19535;50.672;4.206;2023-01-05T06:45:27;5.85;;;2.60;;
33170;SDS011;19535;50.672;4.206;2023-01-05T06:47:54;8.30;;;3.67;;
33170;SDS011;19535;50.672;4.206;2023-01-05T06:50:22;6.68;;;2.70;;
33170;SDS011;19535;50.672;4.206;2023-01-05T06:52:49;7.68;;;3.00;;
33170;SDS011;19535;50.672;4.206;2023-01-05T06:55:16;5.70;;;2.40;;
33170;SDS011;19535;50.672;4.206;2023-01-05T06:57:43;6.00;;;2.85;;
33170;SDS011;19535;50.672;4.206;2023-01-05T07:00:10;7.65;;;2.83;;
33170;SDS011;19535;50.672;4.206;2023-01-05T07:02:38;6.13;;;2.75;;
33170;SDS011;19535;50.672;4.206;2023-01-05T07:05:05;8.25;;;3.25;;
33170;SDS011;19535;50.672;4.206;2023-01-05T07:07:33;6.22;;;2.75;;
33170;SDS011;19535;50.672;4.206;2023-01-05T07:10:00;6.40;;;3.10;;
33170;SDS011;19535;50.672;4.206;2023-01-05T07:12:27;6.95;;;2.90;;
33170;SDS011;19535;50.672;4.206;2023-01-05T07:14:54;6.75;;;3.28;;
33170;SDS011;19535;50.672;4.206;2023-01-05T07:17:23;7.15;;;2.88;;
33170;SDS011;19535;50.672;4.206;2023-01-05T07:19:50;6.50;;;2.67;;
33170;SDS011;19535;50.672;4.206;2023-01-05T07:22:17;5.78;;;3.17;;
33170;SDS011;19535;50.672;4.206;2023-01-05T07:24:44;7.15;;;2.75;;
33170;SDS011;19535;50.672;4.206;2023-01-05T07:27:11;7.50;;;3.05;;
33170;SDS011;19535;50.672;4.206;2023-01-05T07:29:38;8.43;;;3.50;;
33170;SDS011;19535;50.672;4.206;2023-01-05T07:32:05;6.07;;;2.65;;
33170;SDS011;19535;50.672;4.206;2023-01-05T07:34:32;5.85;;;2.63;;
33170;SDS011;19535;50.672;4.206;2023-01-05T07:36:59;6.60;;;2.88;;
33170;SDS011;19535;50.672;4.206;2023-01-05T07:39:26;8.00;;;3.53;;
33170;SDS011;19535;50.672;4.206;2023-01-05T07:41:53;6.82;;;3.00;;
33170;SDS011;19535;50.672;4.206;2023-01-05T07:44:20;5.65;;;2.70;;
33170;SDS011;19535;50.672;4.206;2023-01-05T07:46:47;7.30;;;3.55;;
33170;SDS011;19535;50.672;4.206;2023-01-05T07:49:14;7.05;;;2.85;;
33170;SDS011;19535;50.672;4.206;2023-01-05T07:51:41;6.57;;;2.75;;
33170;SDS011;19535;50.672;4.206;2023-01-05T07:54:08;7.78;;;2.78;;
33170;SDS011;19535;50.672;4.206;2023-01-05T07:56:35;7.55;;;2.85;;
33170;SDS011;19535;50.672;4.206;2023-01-05T07:59:02;7.47;;;2.95;;
33170;SDS011;19535;50.672;4.206;2023-01-05T08:01:29;6.28;;;2.63;;
33170;SDS011;19535;50.672;4.206;2023-01-05T08:03:56;7.15;;;2.88;;
33170;SDS011;19535;50.672;4.206;2023-01-05T08:06:23;5.72;;;2.83;;
33170;SDS011;19535;50.672;4.206;2023-01-05T08:08:50;8.82;;;3.15;;
33170;SDS011;19535;50.672;4.206;2023-01-05T08:11:17;7.93;;;3.13;;
33170;SDS011;19535;50.672;4.206;2023-01-05T08:13:47;6.25;;;2.90;;
33170;SDS011;19535;50.672;4.206;2023-01-05T08:16:29;6.05;;;2.70;;
33170;SDS011;19535;50.672;4.206;2023-01-05T08:18:58;6.63;;;2.90;;
33170;SDS011;19535;50.672;4.206;2023-01-05T08:21:25;7.35;;;2.95;;
33170;SDS011;19535;50.672;4.206;2023-01-05T08:23:52;4.65;;;2.20;;
33170;SDS011;19535;50.672;4.206;2023-01-05T08:26:20;6.55;;;2.72;;
33170;SDS011;19535;50.672;4.206;2023-01-05T08:28:49;6.70;;;2.78;;
33170;SDS011;19535;50.672;4.206;2023-01-05T08:33:55;6.85;;;2.80;;
33170;SDS011;19535;50.672;4.206;2023-01-05T08:36:23;9.15;;;6.47;;
33170;SDS011;19535;50.672;4.206;2023-01-05T08:38:51;14.73;;;9.75;;
33170;SDS011;19535;50.672;4.206;2023-01-05T08:41:23;11.70;;;7.57;;
33170;SDS011;19535;50.672;4.206;2023-01-05T08:43:54;10.65;;;6.75;;
33170;SDS011;19535;50.672;4.206;2023-01-05T08:46:23;9.07;;;6.43;;
33170;SDS011;19535;50.672;4.206;2023-01-05T08:48:57;10.13;;;5.80;;
33170;SDS011;19535;50.672;4.206;2023-01-05T08:51:25;9.25;;;5.22;;
33170;SDS011;19535;50.672;4.206;2023-01-05T08:53:52;8.05;;;4.70;;
33170;SDS011;19535;50.672;4.206;2023-01-05T08:56:20;9.95;;;5.32;;
33170;SDS011;19535;50.672;4.206;2023-01-05T08:58:47;9.57;;;4.60;;
33170;SDS011;19535;50.672;4.206;2023-01-05T09:01:15;10.10;;;5.00;;
33170;SDS011;19535;50.672;4.206;2023-01-05T09:03:43;8.52;;;4.30;;
33170;SDS011;19535;50.672;4.206;2023-01-05T09:06:11;14.90;;;11.20;;
33170;SDS011;19535;50.672;4.206;2023-01-05T09:08:38;15.77;;;11.02;;
33170;SDS011;19535;50.672;4.206;2023-01-05T09:11:11;10.13;;;7.57;;
33170;SDS011;19535;50.672;4.206;2023-01-05T09:13:38;11.35;;;7.05;;
33170;SDS011;19535;50.672;4.206;2023-01-05T09:16:07;9.15;;;5.90;;
33170;SDS011;19535;50.672;4.206;2023-01-05T09:18:36;10.38;;;6.18;;
33170;SDS011;19535;50.672;4.206;2023-01-05T09:21:04;9.93;;;5.57;;
33170;SDS011;19535;50.672;4.206;2023-01-05T09:23:32;9.63;;;5.70;;
33170;SDS011;19535;50.672;4.206;2023-01-05T09:25:59;12.02;;;5.88;;
33170;SDS011;19535;50.672;4.206;2023-01-05T09:28:28;8.25;;;4.55;;
33170;SDS011;19535;50.672;4.206;2023-01-05T09:30:55;9.77;;;4.60;;
33170;SDS011;19535;50.672;4.206;2023-01-05T09:33:22;9.20;;;4.82;;
33170;SDS011;19535;50.672;4.206;2023-01-05T09:35:53;6.07;;;4.07;;
33170;SDS011;19535;50.672;4.206;2023-01-05T09:38:21;9.63;;;4.45;;
33170;SDS011;19535;50.672;4.206;2023-01-05T09:40:50;8.88;;;4.70;;
33170;SDS011;19535;50.672;4.206;2023-01-05T09:43:22;6.95;;;4.00;;
33170;SDS011;19535;50.672;4.206;2023-01-05T09:45:54;8.40;;;4.18;;
33170;SDS011;19535;50.672;4.206;2023-01-05T09:48:22;9.50;;;4.55;;
33170;SDS011;19535;50.672;4.206;2023-01-05T09:50:51;6.60;;;4.00;;
33170;SDS011;19535;50.672;4.206;2023-01-05T09:53:22;8.68;;;4.15;;
33170;SDS011;19535;50.672;4.206;2023-01-05T09:55:56;7.88;;;4.43;;
33170;SDS011;19535;50.672;4.206;2023-01-05T09:58:25;8.48;;;4.28;;
33170;SDS011;19535;50.672;4.206;2023-01-05T10:01:09;7.93;;;4.00;;
33170;SDS011;19535;50.672;4.206;2023-01-05T10:03:44;6.80;;;3.95;;
33170;SDS011;19535;50.672;4.206;2023-01-05T10:06:34;8.80;;;4.53;;
33170;SDS011;19535;50.672;4.206;2023-01-05T10:09:05;8.43;;;4.03;;
33170;SDS011;19535;50.672;4.206;2023-01-05T10:11:43;8.02;;;4.05;;
33170;SDS011;19535;50.672;4.206;2023-01-05T10:14:50;7.60;;;4.03;;
33170;SDS011;19535;50.672;4.206;2023-01-05T10:17:25;7.50;;;3.90;;
33170;SDS011;19535;50.672;4.206;2023-01-05T10:23:11;22.37;;;18.87;;
33170;SDS011;19535;50.672;4.206;2023-01-05T10:25:42;17.48;;;13.68;;
33170;SDS011;19535;50.672;4.206;2023-01-05T10:28:25;13.45;;;10.02;;
33170;SDS011;19535;50.672;4.206;2023-01-05T10:34:20;9.75;;;6.70;;
33170;SDS011;19535;50.672;4.206;2023-01-05T10:37:09;10.50;;;6.72;;
33170;SDS011;19535;50.672;4.206;2023-01-05T10:39:50;11.30;;;6.95;;
33170;SDS011;19535;50.672;4.206;2023-01-05T10:45:09;8.52;;;5.82;;
33170;SDS011;19535;50.672;4.206;2023-01-05T10:47:38;9.48;;;5.82;;
33170;SDS011;19535;50.672;4.206;2023-01-05T10:50:27;9.70;;;6.03;;
33170;SDS011;19535;50.672;4.206;2023-01-05T10:53:14;9.48;;;5.60;;
33170;SDS011;19535;50.672;4.206;2023-01-05T10:58:23;6.70;;;4.93;;
33170;SDS011;19535;50.672;4.206;2023-01-05T11:00:59;7.93;;;4.95;;
33170;SDS011;19535;50.672;4.206;2023-01-05T11:03:32;6.55;;;4.65;;
33170;SDS011;19535;50.672;4.206;2023-01-05T11:06:29;8.15;;;5.13;;
33170;SDS011;19535;50.672;4.206;2023-01-05T11:11:54;10.02;;;4.47;;
33170;SDS011;19535;50.672;4.206;2023-01-05T11:14:21;8.55;;;4.55;;
33170;SDS011;19535;50.672;4.206;2023-01-05T11:16:50;6.18;;;4.22;;
33170;SDS011;19535;50.672;4.206;2023-01-05T11:19:25;5.95;;;4.00;;
33170;SDS011;19535;50.672;4.206;2023-01-05T11:21:56;7.00;;;3.70;;
33170;SDS011;19535;50.672;4.206;2023-01-05T11:24:29;6.18;;;3.92;;
33170;SDS011;19535;50.672;4.206;2023-01-05T11:27:04;7.63;;;4.40;;
33170;SDS011;19535;50.672;4.206;2023-01-05T11:32:50;6.72;;;3.85;;
33170;SDS011;19535;50.672;4.206;2023-01-05T11:35:24;4.78;;;3.25;;
33170;SDS011;19535;50.672;4.206;2023-01-05T11:37:56;5.60;;;3.40;;
33170;SDS011;19535;50.672;4.206;2023-01-05T11:40:25;5.78;;;3.42;;
33170;SDS011;19535;50.672;4.206;2023-01-05T11:42:57;6.10;;;3.75;;
33170;SDS011;19535;50.672;4.206;2023-01-05T11:45:25;8.13;;;3.90;;
33170;SDS011;19535;50.672;4.206;2023-01-05T11:48:04;4.47;;;2.90;;
33170;SDS011;19535;50.672;4.206;2023-01-05T11:50:53;6.15;;;3.20;;
33170;SDS011;19535;50.672;4.206;2023-01-05T11:53:34;7.30;;;2.80;;
33170;SDS011;19535;50.672;4.206;2023-01-05T11:56:15;7.35;;;3.60;;
33170;SDS011;19535;50.672;4.206;2023-01-05T11:58:47;8.82;;;3.58;;
33170;SDS011;19535;50.672;4.206;2023-01-05T12:04:21;6.97;;;3.20;;
33170;SDS011;19535;50.672;4.206;2023-01-05T12:20:56;5.57;;;2.97;;
33170;SDS011;19535;50.672;4.206;2023-01-05T12:29:16;5.95;;;3.00;;
33170;SDS011;19535;50.672;4.206;2023-01-05T12:49:48;5.32;;;3.00;;
33170;SDS011;19535;50.672;4.206;2023-01-05T12:52:23;6.15;;;3.17;;
33170;SDS011;19535;50.672;4.206;2023-01-05T12:55:05;4.82;;;3.00;;
33170;SDS011;19535;50.672;4.206;2023-01-05T12:58:12;5.82;;;3.10;;
33170;SDS011;19535;50.672;4.206;2023-01-05T13:00:42;5.35;;;2.78;;
33170;SDS011;19535;50.672;4.206;2023-01-05T13:03:22;9.15;;;4.32;;
33170;SDS011;19535;50.672;4.206;2023-01-05T13:05:59;15.38;;;12.40;;
33170;SDS011;19535;50.672;4.206;2023-01-05T13:08:41;14.35;;;12.82;;
33170;SDS011;19535;50.672;4.206;2023-01-05T13:14:16;13.82;;;11.27;;
33170;SDS011;19535;50.672;4.206;2023-01-05T13:16:46;13.98;;;10.10;;
33170;SDS011;19535;50.672;4.206;2023-01-05T13:19:24;10.60;;;8.73;;
33170;SDS011;19535;50.672;4.206;2023-01-05T13:22:08;11.20;;;8.95;;
33170;SDS011;19535;50.672;4.206;2023-01-05T13:24:56;11.30;;;7.70;;
33170;SDS011;19535;50.672;4.206;2023-01-05T13:27:27;8.63;;;6.43;;
33170;SDS011;19535;50.672;4.206;2023-01-05T13:29:54;9.32;;;6.80;;
33170;SDS011;19535;50.672;4.206;2023-01-05T13:32:37;9.43;;;5.32;;
33170;SDS011;19535;50.672;4.206;2023-01-05T13:46:21;7.18;;;5.28;;
33170;SDS011;19535;50.672;4.206;2023-01-05T13:52:07;5.70;;;3.95;;
33170;SDS011;19535;50.672;4.206;2023-01-05T13:54:46;5.90;;;4.13;;
33170;SDS011;19535;50.672;4.206;2023-01-05T13:57:29;5.75;;;3.70;;
33170;SDS011;19535;50.672;4.206;2023-01-05T14:00:03;5.80;;;3.38;;
33170;SDS011;19535;50.672;4.206;2023-01-05T14:05:45;5.78;;;3.30;;
33170;SDS011;19535;50.672;4.206;2023-01-05T14:11:17;4.40;;;3.00;;
33170;SDS011;19535;50.672;4.206;2023-01-05T14:24:27;3.97;;;2.50;;
33170;SDS011;19535;50.672;4.206;2023-01-05T14:27:09;4.55;;;2.97;;
33170;SDS011;19535;50.672;4.206;2023-01-05T14:32:22;5.30;;;2.47;;
33170;SDS011;19535;50.672;4.206;2023-01-05T14:34:56;4.95;;;2.08;;
33170;SDS011;19535;50.672;4.206;2023-01-05T14:37:31;4.03;;;2.65;;
33170;SDS011;19535;50.672;4.206;2023-01-05T14:40:13;2.53;;;2.00;;
33170;SDS011;19535;50.672;4.206;2023-01-05T14:42:41;3.28;;;2.08;;
33170;SDS011;19535;50.672;4.206;2023-01-05T14:45:23;3.88;;;2.42;;
33170;SDS011;19535;50.672;4.206;2023-01-05T14:47:54;5.72;;;2.20;;
33170;SDS011;19535;50.672;4.206;2023-01-05T14:50:25;3.80;;;2.33;;
33170;SDS011;19535;50.672;4.206;2023-01-05T15:06:36;3.00;;;1.90;;
33170;SDS011;19535;50.672;4.206;2023-01-05T15:15:23;3.50;;;2.30;;
33170;SDS011;19535;50.672;4.206;2023-01-05T15:21:12;3.90;;;2.08;;
33170;SDS011;19535;50.672;4.206;2023-01-05T15:31:45;9.70;;;8.57;;
33170;SDS011;19535;50.672;4.206;2023-01-05T15:34:22;7.40;;;6.70;;
33170;SDS011;19535;50.672;4.206;2023-01-05T15:37:17;6.95;;;6.35;;
33170;SDS011;19535;50.672;4.206;2023-01-05T15:39:48;5.65;;;5.15;;
33170;SDS011;19535;50.672;4.206;2023-01-05T15:42:20;5.20;;;4.80;;
33170;SDS011;19535;50.672;4.206;2023-01-05T15:44:51;5.85;;;4.72;;
33170;SDS011;19535;50.672;4.206;2023-01-05T15:47:19;4.82;;;4.25;;
33170;SDS011;19535;50.672;4.206;2023-01-05T15:49:49;4.43;;;4.03;;
33170;SDS011;19535;50.672;4.206;2023-01-05T15:52:22;3.72;;;3.42;;
33170;SDS011;19535;50.672;4.206;2023-01-05T15:55:23;3.45;;;3.15;;
33170;SDS011;19535;50.672;4.206;2023-01-05T15:57:59;3.67;;;2.97;;
33170;SDS011;19535;50.672;4.206;2023-01-05T16:00:30;3.15;;;2.85;;
33170;SDS011;19535;50.672;4.206;2023-01-05T16:02:58;3.03;;;2.72;;
33170;SDS011;19535;50.672;4.206;2023-01-05T16:05:27;3.75;;;2.63;;
33170;SDS011;19535;50.672;4.206;2023-01-05T16:08:04;5.30;;;4.80;;
33170;SDS011;19535;50.672;4.206;2023-01-05T16:10:37;18.38;;;16.77;;
33170;SDS011;19535;50.672;4.206;2023-01-05T16:15:59;13.77;;;12.57;;
33170;SDS011;19535;50.672;4.206;2023-01-05T16:18:34;12.48;;;11.32;;
33170;SDS011;19535;50.672;4.206;2023-01-05T16:21:47;11.80;;;10.60;;
33170;SDS011;19535;50.672;4.206;2023-01-05T16:24:05;11.05;;;10.07;;
33170;SDS011;19535;50.672;4.206;2023-01-05T16:26:45;13.25;;;12.05;;
33170;SDS011;19535;50.672;4.206;2023-01-05T16:29:27;19.67;;;17.88;;
33170;SDS011;19535;50.672;4.206;2023-01-05T16:32:22;17.77;;;16.17;;
33170;SDS011;19535;50.672;4.206;2023-01-05T16:40:37;39.22;;;35.55;;
33170;SDS011;19535;50.672;4.206;2023-01-05T16:43:18;53.72;;;48.33;;
33170;SDS011;19535;50.672;4.206;2023-01-05T16:45:49;71.35;;;62.78;;
33170;SDS011;19535;50.672;4.206;2023-01-05T16:51:04;100.85;;;90.15;;
33170;SDS011;19535;50.672;4.206;2023-01-05T16:53:39;108.13;;;96.53;;
33170;SDS011;19535;50.672;4.206;2023-01-05T16:56:18;113.20;;;101.00;;
33170;SDS011;19535;50.672;4.206;2023-01-05T17:02:00;110.32;;;98.22;;
33170;SDS011;19535;50.672;4.206;2023-01-05T17:04:27;108.97;;;97.20;;
33170;SDS011;19535;50.672;4.206;2023-01-05T17:06:54;108.22;;;96.32;;
33170;SDS011;19535;50.672;4.206;2023-01-05T17:09:27;102.40;;;91.15;;
33170;SDS011;19535;50.672;4.206;2023-01-05T17:11:56;102.65;;;91.63;;
33170;SDS011;19535;50.672;4.206;2023-01-05T17:14:23;97.45;;;87.00;;
33170;SDS011;19535;50.672;4.206;2023-01-05T17:16:51;92.70;;;82.85;;
33170;SDS011;19535;50.672;4.206;2023-01-05T17:19:19;87.25;;;77.65;;
33170;SDS011;19535;50.672;4.206;2023-01-05T17:21:52;82.22;;;73.60;;
33170;SDS011;19535;50.672;4.206;2023-01-05T17:24:21;72.85;;;65.05;;
33170;SDS011;19535;50.672;4.206;2023-01-05T17:26:51;67.45;;;60.17;;
33170;SDS011;19535;50.672;4.206;2023-01-05T17:29:22;60.63;;;54.50;;
33170;SDS011;19535;50.672;4.206;2023-01-05T17:31:53;64.68;;;57.83;;
33170;SDS011;19535;50.672;4.206;2023-01-05T17:34:21;58.35;;;52.35;;
33170;SDS011;19535;50.672;4.206;2023-01-05T17:36:48;50.35;;;45.28;;
33170;SDS011;19535;50.672;4.206;2023-01-05T17:39:19;52.30;;;47.30;;
33170;SDS011;19535;50.672;4.206;2023-01-05T17:41:47;48.47;;;43.67;;
33170;SDS011;19535;50.672;4.206;2023-01-05T17:44:14;46.03;;;41.58;;
33170;SDS011;19535;50.672;4.206;2023-01-05T17:46:42;42.50;;;38.42;;
33170;SDS011;19535;50.672;4.206;2023-01-05T17:49:15;44.22;;;39.92;;
33170;SDS011;19535;50.672;4.206;2023-01-05T17:51:45;39.58;;;35.80;;
33170;SDS011;19535;50.672;4.206;2023-01-05T17:54:12;37.47;;;34.17;;
33170;SDS011;19535;50.672;4.206;2023-01-05T17:56:39;37.30;;;33.88;;
33170;SDS011;19535;50.672;4.206;2023-01-05T17:59:06;32.78;;;29.83;;
33170;SDS011;19535;50.672;4.206;2023-01-05T18:01:33;36.45;;;33.05;;